createdAt,value
2023-05-10T00:02:56.518Z,61.04
2023-05-10T00:07:50.235Z,61.08
2023-05-10T00:12:43.011Z,60.87
2023-05-10T00:17:35.937Z,61.23
2023-05-10T00:22:28.961Z,60.99
2023-05-10T00:27:22.513Z,61.20
2023-05-10T00:32:16.146Z,61.09
2023-05-10T00:37:08.757Z,61.28
2023-05-10T00:42:01.761Z,61.04
2023-05-10T00:46:55.367Z,60.89
2023-05-10T00:51:48.996Z,60.77
2023-05-10T00:56:42.456Z,60.40
2023-05-10T01:01:35.213Z,60.62
2023-05-10T01:06:28.358Z,60.47
2023-05-10T01:11:22.579Z,59.99
2023-05-10T01:16:15.998Z,59.96
2023-05-10T01:21:33.124Z,60.26
2023-05-10T01:26:53.484Z,60.27
2023-05-10T01:32:19.683Z,60.01
2023-05-10T01:37:23.102Z,60.56
2023-05-10T01:42:21.612Z,60.10
2023-05-10T01:47:36.965Z,60.36
2023-05-10T01:52:43.165Z,60.11
2023-05-10T01:57:38.882Z,60.09
2023-05-10T02:02:36.417Z,59.91
2023-05-10T02:07:31.702Z,59.71
2023-05-10T02:12:25.727Z,59.83
2023-05-10T02:17:18.295Z,59.85
2023-05-10T02:22:11.656Z,59.49
2023-05-10T02:27:06.725Z,59.45
2023-05-10T02:32:01.964Z,59.27
2023-05-10T02:36:57.722Z,59.22
2023-05-10T02:41:51.555Z,59.38
2023-05-10T02:46:45.353Z,59.33
2023-05-10T02:51:44.001Z,59.58
2023-05-10T02:56:42.221Z,59.38
2023-05-10T03:01:35.484Z,59.15
2023-05-10T03:06:30.160Z,59.30
2023-05-10T03:11:51.133Z,59.47
2023-05-10T03:17:05.722Z,59.11
2023-05-10T03:22:05.186Z,59.37
2023-05-10T03:27:04.358Z,59.28
2023-05-10T03:31:57.431Z,59.42
2023-05-10T03:36:50.507Z,59.44
2023-05-10T03:41:43.769Z,58.74
2023-05-10T03:46:36.990Z,58.84
2023-05-10T03:51:29.742Z,58.90
2023-05-10T03:56:22.869Z,59.22
2023-05-10T04:01:17.395Z,58.78
2023-05-10T04:06:13.190Z,58.64
2023-05-10T04:11:09.312Z,58.66
2023-05-10T04:16:03.296Z,58.63
2023-05-10T04:20:56.364Z,58.34
2023-05-10T04:25:49.273Z,58.45
2023-05-10T04:30:42.908Z,58.38
2023-05-10T04:35:37.446Z,58.44
2023-05-10T04:40:31.214Z,58.29
2023-05-10T04:45:24.708Z,58.57
2023-05-10T04:50:19.170Z,58.40
2023-05-10T04:55:12.832Z,58.44
2023-05-10T05:00:07.766Z,58.56
2023-05-10T05:05:01.014Z,58.11
2023-05-10T05:09:53.973Z,57.73
2023-05-10T05:14:51.373Z,57.42
2023-05-10T05:19:44.873Z,57.42
2023-05-10T05:24:57.732Z,57.08
2023-05-10T05:29:50.237Z,58.04
2023-05-10T05:34:46.811Z,58.09
2023-05-10T05:39:39.898Z,57.54
2023-05-10T05:44:33.204Z,57.81
2023-05-10T05:49:26.730Z,56.25
2023-05-10T05:54:21.514Z,57.32
2023-05-10T05:59:14.788Z,58.07
2023-05-10T06:04:07.621Z,58.05
2023-05-10T06:09:00.862Z,57.60
2023-05-10T06:13:54.811Z,57.88
2023-05-10T06:18:48.299Z,57.14
2023-05-10T06:23:42.301Z,56.95
2023-05-10T06:28:35.424Z,56.97
2023-05-10T06:33:29.061Z,57.01
2023-05-10T06:38:22.153Z,57.12
2023-05-10T06:43:14.896Z,56.99
2023-05-10T06:48:08.289Z,57.08
2023-05-10T06:53:03.262Z,57.18
2023-05-10T06:57:56.826Z,56.67
2023-05-10T07:02:50.082Z,56.98
2023-05-10T07:07:43.800Z,57.03
2023-05-10T07:12:36.392Z,56.84
2023-05-10T07:17:29.972Z,56.29
2023-05-10T07:22:23.503Z,56.54
2023-05-10T07:27:16.584Z,56.50
2023-05-10T07:32:09.695Z,56.40
2023-05-10T07:37:02.620Z,56.12
2023-05-10T07:41:56.284Z,56.13
2023-05-10T07:46:50.225Z,56.01
2023-05-10T07:51:43.944Z,56.02
2023-05-10T07:56:36.993Z,56.07
2023-05-10T08:01:36.427Z,55.60
2023-05-10T08:06:31.434Z,55.83
2023-05-10T08:11:24.721Z,55.99
2023-05-10T08:16:19.325Z,55.62
2023-05-10T08:21:12.936Z,55.72
2023-05-10T08:26:06.163Z,55.77
2023-05-10T08:30:59.342Z,55.12
2023-05-10T08:35:51.947Z,55.17
2023-05-10T08:40:49.723Z,55.46
2023-05-10T08:45:48.797Z,55.28
2023-05-10T08:50:44.544Z,55.19
2023-05-10T08:55:39.994Z,54.90
2023-05-10T09:00:32.921Z,54.94
2023-05-10T09:05:26.663Z,54.78
2023-05-10T09:10:20.456Z,55.02
2023-05-10T09:15:20.482Z,54.77
2023-05-10T09:20:13.276Z,54.46
2023-05-10T09:25:16.687Z,54.77
2023-05-10T09:30:11.539Z,54.71
2023-05-10T09:35:18.682Z,54.57
2023-05-10T09:40:27.582Z,54.56
2023-05-10T09:45:21.318Z,54.10
2023-05-10T09:50:14.621Z,54.19
2023-05-10T09:55:08.389Z,54.05
2023-05-10T10:00:02.363Z,53.88
2023-05-10T10:05:08.326Z,54.21
2023-05-10T10:10:01.572Z,53.87
2023-05-10T10:14:54.700Z,53.67
2023-05-10T10:19:49.205Z,53.82
2023-05-10T10:24:42.774Z,53.67
2023-05-10T10:29:42.727Z,53.80
2023-05-10T10:34:36.816Z,53.84
2023-05-10T10:39:29.496Z,53.79
2023-05-10T10:44:27.875Z,53.77
2023-05-10T10:49:21.817Z,53.52
2023-05-10T10:54:14.651Z,53.75
2023-05-10T10:59:07.429Z,53.65
2023-05-10T11:04:00.497Z,53.35
2023-05-10T11:08:54.167Z,53.96
2023-05-10T11:13:51.343Z,53.98
2023-05-10T11:19:03.255Z,53.64
2023-05-10T11:24:00.738Z,53.60
2023-05-10T11:28:58.159Z,54.10
2023-05-10T11:33:53.088Z,53.79
2023-05-10T11:38:47.789Z,53.80
2023-05-10T11:43:42.515Z,54.12
2023-05-10T11:48:36.523Z,53.95
2023-05-10T11:53:33.663Z,53.95
2023-05-10T11:58:27.102Z,53.80
2023-05-10T12:03:21.285Z,54.11
2023-05-10T12:08:15.738Z,54.69
2023-05-10T12:13:16.763Z,55.01
2023-05-10T12:18:15.846Z,52.94
2023-05-10T12:23:11.690Z,53.11
2023-05-10T12:28:09.847Z,52.88
2023-05-10T12:33:31.709Z,54.45
2023-05-10T12:38:31.376Z,54.54
2023-05-10T12:43:25.168Z,54.31
2023-05-10T12:48:18.095Z,53.99
2023-05-10T12:53:11.345Z,54.15
2023-05-10T12:58:04.898Z,54.19
2023-05-10T13:02:57.945Z,53.95
2023-05-10T13:07:51.126Z,53.82
2023-05-10T13:12:44.132Z,53.92
2023-05-10T13:17:37.642Z,53.91
2023-05-10T13:22:40.274Z,54.37
2023-05-10T13:27:33.196Z,53.95
2023-05-10T13:32:26.608Z,53.78
2023-05-10T13:37:19.937Z,54.17
2023-05-10T13:42:13.466Z,54.13
2023-05-10T13:47:07.779Z,53.56
2023-05-10T13:52:08.157Z,53.20
2023-05-10T13:57:01.588Z,52.71
2023-05-10T14:01:54.654Z,52.87
2023-05-10T14:06:48.414Z,53.01
2023-05-10T14:11:44.613Z,52.38
2023-05-10T14:16:38.215Z,51.91
2023-05-10T14:21:32.209Z,51.58
2023-05-10T14:26:25.621Z,51.82
2023-05-10T14:31:20.923Z,51.94
2023-05-10T14:36:16.254Z,51.93
2023-05-10T14:41:11.725Z,52.00
2023-05-10T14:46:05.441Z,51.93
2023-05-10T14:50:58.726Z,52.31
2023-05-10T14:55:53.243Z,50.84
2023-05-10T15:00:47.323Z,50.86
2023-05-10T15:05:40.967Z,50.72
2023-05-10T15:10:34.563Z,50.91
2023-05-10T15:15:28.203Z,51.78
2023-05-10T15:20:20.305Z,51.73
2023-05-10T15:25:16.233Z,51.97
2023-05-10T15:30:13.526Z,52.00
2023-05-10T15:35:06.718Z,51.95
2023-05-10T15:40:05.174Z,52.19
2023-05-10T15:44:57.740Z,51.86
2023-05-10T15:49:50.526Z,52.53
2023-05-10T15:54:44.024Z,51.97
2023-05-10T15:59:37.055Z,52.62
2023-05-10T16:04:31.073Z,51.50
2023-05-10T16:09:24.947Z,50.97
2023-05-10T16:14:18.245Z,51.53
2023-05-10T16:19:11.613Z,51.92
2023-05-10T16:24:05.967Z,51.67
2023-05-10T16:28:59.416Z,51.45
2023-05-10T16:33:54.314Z,51.59
2023-05-10T16:38:47.122Z,51.71
2023-05-10T16:43:40.899Z,52.60
2023-05-10T16:48:34.927Z,52.71
2023-05-10T16:53:29.519Z,52.74
2023-05-10T16:58:22.523Z,52.69
2023-05-10T17:03:20.036Z,52.10
2023-05-10T17:08:13.557Z,51.94
2023-05-10T17:13:09.333Z,51.43
2023-05-10T17:18:02.535Z,51.65
2023-05-10T17:22:55.627Z,51.88
2023-05-10T17:27:48.602Z,52.03
2023-05-10T17:32:41.769Z,52.39
2023-05-10T17:37:35.775Z,52.02
2023-05-10T17:42:28.805Z,52.40
2023-05-10T17:47:22.250Z,52.12
2023-05-10T17:52:15.848Z,52.45
2023-05-10T17:57:08.409Z,52.64
2023-05-10T18:02:02.647Z,52.27
2023-05-10T18:07:01.911Z,52.35
2023-05-10T18:11:54.580Z,52.65
2023-05-10T18:16:46.696Z,52.05
2023-05-10T18:21:40.206Z,52.47
2023-05-10T18:26:33.643Z,52.03
2023-05-10T18:31:27.052Z,51.92
2023-05-10T18:36:20.125Z,51.74
2023-05-10T18:41:15.027Z,52.00
2023-05-10T18:46:08.393Z,51.71
2023-05-10T18:51:01.865Z,51.89
2023-05-10T18:55:58.639Z,52.29
2023-05-10T19:00:53.963Z,52.06
2023-05-10T19:05:49.449Z,52.24
2023-05-10T19:10:43.049Z,52.26
2023-05-10T19:15:37.017Z,52.37
2023-05-10T19:20:30.506Z,52.03
2023-05-10T19:25:29.599Z,52.34
2023-05-10T19:30:22.311Z,51.87
2023-05-10T19:35:14.985Z,52.32
2023-05-10T19:40:12.905Z,52.26
2023-05-10T19:45:07.121Z,52.15
2023-05-10T19:50:00.705Z,52.33
2023-05-10T19:54:53.575Z,52.13
2023-05-10T19:59:47.254Z,52.43
2023-05-10T20:04:40.970Z,52.17
2023-05-10T20:09:34.622Z,52.04
2023-05-10T20:14:27.931Z,52.23
2023-05-10T20:19:22.407Z,52.51
2023-05-10T20:24:16.452Z,52.59
2023-05-10T20:29:10.246Z,52.50
2023-05-10T20:34:03.483Z,52.99
2023-05-10T20:38:57.091Z,52.57
2023-05-10T20:43:49.912Z,53.02
2023-05-10T20:48:48.367Z,52.68
2023-05-10T20:53:41.951Z,52.70
2023-05-10T20:58:36.022Z,53.34
2023-05-10T21:03:28.791Z,52.92
2023-05-10T21:08:21.420Z,53.35
2023-05-10T21:13:14.986Z,53.11
2023-05-10T21:18:08.501Z,53.56
2023-05-10T21:23:01.166Z,53.35
2023-05-10T21:27:55.056Z,53.48
2023-05-10T21:32:48.491Z,53.73
2023-05-10T21:37:42.108Z,53.85
2023-05-10T21:42:35.068Z,53.42
2023-05-10T21:47:27.933Z,53.46
2023-05-10T21:52:21.805Z,53.52
2023-05-10T21:57:15.300Z,53.78
2023-05-10T22:02:07.779Z,53.44
2023-05-10T22:07:01.917Z,53.81
2023-05-10T22:11:54.554Z,53.57
2023-05-10T22:16:48.068Z,53.49
2023-05-10T22:21:41.905Z,53.39
2023-05-10T22:26:35.170Z,53.51
2023-05-10T22:31:28.628Z,53.58
2023-05-10T22:36:21.190Z,53.43
2023-05-10T22:41:14.035Z,53.49
2023-05-10T22:46:07.623Z,53.55
2023-05-10T22:51:00.844Z,53.51
2023-05-10T22:55:54.477Z,53.60
2023-05-10T23:00:47.437Z,53.42
2023-05-10T23:05:40.887Z,53.45
2023-05-10T23:10:34.636Z,53.74
2023-05-10T23:15:28.583Z,53.54
2023-05-10T23:20:21.998Z,53.50
2023-05-10T23:25:16.344Z,53.43
2023-05-10T23:30:10.934Z,53.50
2023-05-10T23:35:04.479Z,53.90
2023-05-10T23:39:57.622Z,53.85
2023-05-10T23:44:52.821Z,53.79
2023-05-10T23:49:46.092Z,53.41
2023-05-10T23:54:39.090Z,53.93
2023-05-10T23:59:32.050Z,53.47
